sensor_id;sensor_type;location;lat;lon;timestamp;P1;durP1;ratioP1;P2;durP2;ratioP2
7199;SDS011;3641;49.082;8.200;2022-11-14T00:01:35;36.63;;;20.23;;
7199;SDS011;3641;49.082;8.200;2022-11-14T00:04:02;36.08;;;20.27;;
7199;SDS011;3641;49.082;8.200;2022-11-14T00:06:28;36.85;;;19.85;;
7199;SDS011;3641;49.082;8.200;2022-11-14T00:08:55;35.22;;;20.75;;
7199;SDS011;3641;49.082;8.200;2022-11-14T00:11:22;41.38;;;20.27;;
7199;SDS011;3641;49.082;8.200;2022-11-14T00:13:49;35.08;;;20.08;;
7199;SDS011;3641;49.082;8.200;2022-11-14T00:16:15;33.15;;;19.80;;
7199;SDS011;3641;49.082;8.200;2022-11-14T00:18:42;37.70;;;20.45;;
7199;SDS011;3641;49.082;8.200;2022-11-14T00:21:08;32.83;;;19.58;;
7199;SDS011;3641;49.082;8.200;2022-11-14T00:23:35;36.35;;;19.15;;
7199;SDS011;3641;49.082;8.200;2022-11-14T00:26:01;30.85;;;18.65;;
7199;SDS011;3641;49.082;8.200;2022-11-14T00:28:29;33.47;;;19.00;;
7199;SDS011;3641;49.082;8.200;2022-11-14T00:30:55;32.00;;;19.83;;
7199;SDS011;3641;49.082;8.200;2022-11-14T00:33:22;36.40;;;18.92;;
7199;SDS011;3641;49.082;8.200;2022-11-14T00:35:49;34.67;;;20.40;;
7199;SDS011;3641;49.082;8.200;2022-11-14T00:38:16;33.13;;;19.08;;
7199;SDS011;3641;49.082;8.200;2022-11-14T00:40:43;34.47;;;20.25;;
7199;SDS011;3641;49.082;8.200;2022-11-14T00:43:09;33.22;;;19.77;;
7199;SDS011;3641;49.082;8.200;2022-11-14T00:45:37;30.48;;;19.10;;
7199;SDS011;3641;49.082;8.200;2022-11-14T00:48:04;30.92;;;18.58;;
7199;SDS011;3641;49.082;8.200;2022-11-14T00:50:30;27.65;;;17.60;;
7199;SDS011;3641;49.082;8.200;2022-11-14T00:52:57;29.38;;;17.65;;
7199;SDS011;3641;49.082;8.200;2022-11-14T00:55:23;29.80;;;17.45;;
7199;SDS011;3641;49.082;8.200;2022-11-14T00:57:50;29.08;;;17.33;;
7199;SDS011;3641;49.082;8.200;2022-11-14T01:00:16;29.77;;;17.52;;
7199;SDS011;3641;49.082;8.200;2022-11-14T01:02:44;29.80;;;17.83;;
7199;SDS011;3641;49.082;8.200;2022-11-14T01:05:11;27.40;;;16.67;;
7199;SDS011;3641;49.082;8.200;2022-11-14T01:07:37;26.95;;;16.65;;
7199;SDS011;3641;49.082;8.200;2022-11-14T01:10:04;29.58;;;16.90;;
7199;SDS011;3641;49.082;8.200;2022-11-14T01:12:32;26.73;;;16.77;;
7199;SDS011;3641;49.082;8.200;2022-11-14T01:14:58;29.38;;;16.60;;
7199;SDS011;3641;49.082;8.200;2022-11-14T01:17:25;29.60;;;16.48;;
7199;SDS011;3641;49.082;8.200;2022-11-14T01:19:53;26.52;;;16.83;;
7199;SDS011;3641;49.082;8.200;2022-11-14T01:22:20;27.20;;;16.58;;
7199;SDS011;3641;49.082;8.200;2022-11-14T01:24:46;30.73;;;16.40;;
7199;SDS011;3641;49.082;8.200;2022-11-14T01:27:13;28.67;;;16.67;;
7199;SDS011;3641;49.082;8.200;2022-11-14T01:29:39;25.85;;;16.10;;
7199;SDS011;3641;49.082;8.200;2022-11-14T01:32:06;26.92;;;16.10;;
7199;SDS011;3641;49.082;8.200;2022-11-14T01:34:32;27.08;;;16.33;;
7199;SDS011;3641;49.082;8.200;2022-11-14T01:37:00;27.85;;;15.88;;
7199;SDS011;3641;49.082;8.200;2022-11-14T01:39:26;27.25;;;16.02;;
7199;SDS011;3641;49.082;8.200;2022-11-14T01:41:53;27.60;;;15.77;;
7199;SDS011;3641;49.082;8.200;2022-11-14T01:47:09;24.92;;;15.82;;
7199;SDS011;3641;49.082;8.200;2022-11-14T01:49:37;27.13;;;15.70;;
7199;SDS011;3641;49.082;8.200;2022-11-14T01:52:07;26.23;;;15.27;;
7199;SDS011;3641;49.082;8.200;2022-11-14T01:54:37;28.55;;;15.60;;
7199;SDS011;3641;49.082;8.200;2022-11-14T01:57:08;27.30;;;15.85;;
7199;SDS011;3641;49.082;8.200;2022-11-14T01:59:36;26.75;;;15.50;;
7199;SDS011;3641;49.082;8.200;2022-11-14T02:02:07;28.25;;;15.60;;
7199;SDS011;3641;49.082;8.200;2022-11-14T02:04:38;27.65;;;15.43;;
7199;SDS011;3641;49.082;8.200;2022-11-14T02:07:09;24.52;;;15.45;;
7199;SDS011;3641;49.082;8.200;2022-11-14T02:09:38;26.65;;;15.75;;
7199;SDS011;3641;49.082;8.200;2022-11-14T02:12:08;26.65;;;15.27;;
7199;SDS011;3641;49.082;8.200;2022-11-14T02:14:37;23.90;;;14.57;;
7199;SDS011;3641;49.082;8.200;2022-11-14T02:17:05;27.70;;;14.95;;
7199;SDS011;3641;49.082;8.200;2022-11-14T02:19:41;25.02;;;14.95;;
7199;SDS011;3641;49.082;8.200;2022-11-14T02:22:10;27.42;;;14.70;;
7199;SDS011;3641;49.082;8.200;2022-11-14T02:24:37;25.88;;;15.25;;
7199;SDS011;3641;49.082;8.200;2022-11-14T02:27:04;26.02;;;15.18;;
7199;SDS011;3641;49.082;8.200;2022-11-14T02:29:32;26.05;;;14.95;;
7199;SDS011;3641;49.082;8.200;2022-11-14T02:31:59;25.20;;;14.75;;
7199;SDS011;3641;49.082;8.200;2022-11-14T02:34:26;26.35;;;14.13;;
7199;SDS011;3641;49.082;8.200;2022-11-14T02:36:53;23.73;;;14.90;;
7199;SDS011;3641;49.082;8.200;2022-11-14T02:39:21;26.45;;;14.75;;
7199;SDS011;3641;49.082;8.200;2022-11-14T02:41:48;24.35;;;14.27;;
7199;SDS011;3641;49.082;8.200;2022-11-14T02:44:15;25.23;;;13.90;;
7199;SDS011;3641;49.082;8.200;2022-11-14T02:46:42;26.58;;;14.55;;
7199;SDS011;3641;49.082;8.200;2022-11-14T02:49:08;25.17;;;14.05;;
7199;SDS011;3641;49.082;8.200;2022-11-14T02:51:35;22.05;;;14.07;;
7199;SDS011;3641;49.082;8.200;2022-11-14T02:54:01;25.08;;;14.35;;
7199;SDS011;3641;49.082;8.200;2022-11-14T02:56:29;23.67;;;14.25;;
7199;SDS011;3641;49.082;8.200;2022-11-14T02:58:56;24.90;;;14.85;;
7199;SDS011;3641;49.082;8.200;2022-11-14T03:01:23;25.70;;;14.40;;
7199;SDS011;3641;49.082;8.200;2022-11-14T03:03:49;26.10;;;14.55;;
7199;SDS011;3641;49.082;8.200;2022-11-14T03:06:16;26.23;;;14.52;;
7199;SDS011;3641;49.082;8.200;2022-11-14T03:08:42;26.98;;;13.95;;
7199;SDS011;3641;49.082;8.200;2022-11-14T03:11:09;24.75;;;14.93;;
7199;SDS011;3641;49.082;8.200;2022-11-14T03:13:37;26.63;;;15.18;;
7199;SDS011;3641;49.082;8.200;2022-11-14T03:16:04;26.60;;;14.40;;
7199;SDS011;3641;49.082;8.200;2022-11-14T03:18:31;24.65;;;14.20;;
7199;SDS011;3641;49.082;8.200;2022-11-14T03:21:03;24.35;;;14.55;;
7199;SDS011;3641;49.082;8.200;2022-11-14T03:23:30;24.25;;;13.88;;
7199;SDS011;3641;49.082;8.200;2022-11-14T03:25:58;26.48;;;15.20;;
7199;SDS011;3641;49.082;8.200;2022-11-14T03:28:25;25.55;;;13.65;;
7199;SDS011;3641;49.082;8.200;2022-11-14T03:30:53;24.98;;;14.25;;
7199;SDS011;3641;49.082;8.200;2022-11-14T03:33:20;24.98;;;13.95;;
7199;SDS011;3641;49.082;8.200;2022-11-14T03:35:47;25.00;;;14.18;;
7199;SDS011;3641;49.082;8.200;2022-11-14T03:38:14;24.10;;;13.63;;
7199;SDS011;3641;49.082;8.200;2022-11-14T03:40:41;26.40;;;13.40;;
7199;SDS011;3641;49.082;8.200;2022-11-14T03:43:07;25.38;;;13.98;;
7199;SDS011;3641;49.082;8.200;2022-11-14T03:45:34;24.17;;;13.52;;
7199;SDS011;3641;49.082;8.200;2022-11-14T03:48:03;25.50;;;13.65;;
7199;SDS011;3641;49.082;8.200;2022-11-14T03:50:30;23.40;;;13.63;;
7199;SDS011;3641;49.082;8.200;2022-11-14T03:52:56;25.50;;;13.77;;
7199;SDS011;3641;49.082;8.200;2022-11-14T03:55:22;25.15;;;13.25;;
7199;SDS011;3641;49.082;8.200;2022-11-14T03:57:49;24.85;;;13.88;;
7199;SDS011;3641;49.082;8.200;2022-11-14T04:00:16;24.55;;;13.90;;
7199;SDS011;3641;49.082;8.200;2022-11-14T04:02:42;24.02;;;13.23;;
7199;SDS011;3641;49.082;8.200;2022-11-14T04:05:10;25.75;;;14.57;;
7199;SDS011;3641;49.082;8.200;2022-11-14T04:07:37;25.00;;;15.07;;
7199;SDS011;3641;49.082;8.200;2022-11-14T04:10:03;27.92;;;14.65;;
7199;SDS011;3641;49.082;8.200;2022-11-14T04:12:31;25.77;;;14.15;;
7199;SDS011;3641;49.082;8.200;2022-11-14T04:14:58;26.10;;;14.48;;
7199;SDS011;3641;49.082;8.200;2022-11-14T04:17:24;31.48;;;14.63;;
7199;SDS011;3641;49.082;8.200;2022-11-14T04:19:51;26.92;;;14.45;;
7199;SDS011;3641;49.082;8.200;2022-11-14T04:22:18;32.95;;;16.30;;
7199;SDS011;3641;49.082;8.200;2022-11-14T04:24:45;27.85;;;15.20;;
7199;SDS011;3641;49.082;8.200;2022-11-14T04:27:11;29.33;;;14.70;;
7199;SDS011;3641;49.082;8.200;2022-11-14T04:29:38;30.42;;;14.93;;
7199;SDS011;3641;49.082;8.200;2022-11-14T04:32:04;31.10;;;16.13;;
7199;SDS011;3641;49.082;8.200;2022-11-14T04:34:31;29.75;;;14.88;;
7199;SDS011;3641;49.082;8.200;2022-11-14T04:36:57;28.63;;;15.15;;
7199;SDS011;3641;49.082;8.200;2022-11-14T04:39:25;30.85;;;14.90;;
7199;SDS011;3641;49.082;8.200;2022-11-14T04:41:51;32.47;;;15.80;;
7199;SDS011;3641;49.082;8.200;2022-11-14T04:44:18;33.40;;;15.68;;
7199;SDS011;3641;49.082;8.200;2022-11-14T04:46:44;30.60;;;15.18;;
7199;SDS011;3641;49.082;8.200;2022-11-14T04:49:11;29.50;;;15.00;;
7199;SDS011;3641;49.082;8.200;2022-11-14T04:51:37;34.90;;;15.85;;
7199;SDS011;3641;49.082;8.200;2022-11-14T04:54:04;36.50;;;16.63;;
7199;SDS011;3641;49.082;8.200;2022-11-14T04:56:32;32.47;;;15.52;;
7199;SDS011;3641;49.082;8.200;2022-11-14T04:58:58;31.83;;;15.93;;
7199;SDS011;3641;49.082;8.200;2022-11-14T05:01:25;32.92;;;15.98;;
7199;SDS011;3641;49.082;8.200;2022-11-14T05:03:51;29.45;;;14.70;;
7199;SDS011;3641;49.082;8.200;2022-11-14T05:06:18;33.28;;;16.00;;
7199;SDS011;3641;49.082;8.200;2022-11-14T05:08:44;34.42;;;15.93;;
7199;SDS011;3641;49.082;8.200;2022-11-14T05:11:12;34.60;;;16.42;;
7199;SDS011;3641;49.082;8.200;2022-11-14T05:13:41;32.45;;;15.65;;
7199;SDS011;3641;49.082;8.200;2022-11-14T05:16:07;31.48;;;15.75;;
7199;SDS011;3641;49.082;8.200;2022-11-14T05:18:34;30.70;;;14.70;;
7199;SDS011;3641;49.082;8.200;2022-11-14T05:21:01;29.17;;;14.57;;
7199;SDS011;3641;49.082;8.200;2022-11-14T05:23:27;33.95;;;15.40;;
7199;SDS011;3641;49.082;8.200;2022-11-14T05:25:58;32.50;;;15.38;;
7199;SDS011;3641;49.082;8.200;2022-11-14T05:28:25;33.75;;;15.43;;
7199;SDS011;3641;49.082;8.200;2022-11-14T05:30:58;27.80;;;14.63;;
7199;SDS011;3641;49.082;8.200;2022-11-14T05:33:25;28.35;;;14.43;;
7199;SDS011;3641;49.082;8.200;2022-11-14T05:35:52;28.80;;;14.93;;
7199;SDS011;3641;49.082;8.200;2022-11-14T05:38:18;29.98;;;15.18;;
7199;SDS011;3641;49.082;8.200;2022-11-14T05:40:45;28.13;;;14.65;;
7199;SDS011;3641;49.082;8.200;2022-11-14T05:43:11;26.65;;;13.63;;
7199;SDS011;3641;49.082;8.200;2022-11-14T05:45:38;28.77;;;14.15;;
7199;SDS011;3641;49.082;8.200;2022-11-14T05:48:06;28.70;;;14.60;;
7199;SDS011;3641;49.082;8.200;2022-11-14T05:50:32;29.42;;;14.40;;
7199;SDS011;3641;49.082;8.200;2022-11-14T05:52:59;30.00;;;15.48;;
7199;SDS011;3641;49.082;8.200;2022-11-14T05:55:25;29.88;;;15.48;;
7199;SDS011;3641;49.082;8.200;2022-11-14T05:57:52;30.33;;;15.13;;
7199;SDS011;3641;49.082;8.200;2022-11-14T06:00:18;32.67;;;15.23;;
7199;SDS011;3641;49.082;8.200;2022-11-14T06:02:45;31.23;;;14.82;;
7199;SDS011;3641;49.082;8.200;2022-11-14T06:05:13;32.45;;;15.55;;
7199;SDS011;3641;49.082;8.200;2022-11-14T06:07:39;30.55;;;16.60;;
7199;SDS011;3641;49.082;8.200;2022-11-14T06:10:06;29.40;;;15.55;;
7199;SDS011;3641;49.082;8.200;2022-11-14T06:12:36;32.78;;;15.68;;
7199;SDS011;3641;49.082;8.200;2022-11-14T06:15:02;34.78;;;17.10;;
7199;SDS011;3641;49.082;8.200;2022-11-14T06:17:29;33.30;;;15.70;;
7199;SDS011;3641;49.082;8.200;2022-11-14T06:19:55;34.60;;;16.38;;
7199;SDS011;3641;49.082;8.200;2022-11-14T06:22:23;35.72;;;16.27;;
7199;SDS011;3641;49.082;8.200;2022-11-14T06:24:50;36.70;;;16.67;;
7199;SDS011;3641;49.082;8.200;2022-11-14T06:27:16;38.42;;;16.77;;
7199;SDS011;3641;49.082;8.200;2022-11-14T06:29:42;34.22;;;16.42;;
7199;SDS011;3641;49.082;8.200;2022-11-14T06:32:09;32.55;;;16.95;;
7199;SDS011;3641;49.082;8.200;2022-11-14T06:34:35;32.55;;;17.15;;
7199;SDS011;3641;49.082;8.200;2022-11-14T06:37:03;30.75;;;16.40;;
7199;SDS011;3641;49.082;8.200;2022-11-14T06:39:30;34.40;;;17.02;;
7199;SDS011;3641;49.082;8.200;2022-11-14T06:41:57;31.58;;;17.00;;
7199;SDS011;3641;49.082;8.200;2022-11-14T06:44:23;30.35;;;16.23;;
7199;SDS011;3641;49.082;8.200;2022-11-14T06:46:50;27.90;;;15.90;;
7199;SDS011;3641;49.082;8.200;2022-11-14T06:49:16;31.83;;;16.50;;
7199;SDS011;3641;49.082;8.200;2022-11-14T06:51:43;31.40;;;17.02;;
7199;SDS011;3641;49.082;8.200;2022-11-14T06:54:09;29.23;;;16.08;;
7199;SDS011;3641;49.082;8.200;2022-11-14T06:56:37;30.25;;;17.95;;
7199;SDS011;3641;49.082;8.200;2022-11-14T06:59:04;28.75;;;16.00;;
7199;SDS011;3641;49.082;8.200;2022-11-14T07:01:30;30.42;;;16.80;;
7199;SDS011;3641;49.082;8.200;2022-11-14T07:03:57;32.53;;;16.40;;
7199;SDS011;3641;49.082;8.200;2022-11-14T07:06:25;27.83;;;16.17;;
7199;SDS011;3641;49.082;8.200;2022-11-14T07:08:52;29.48;;;16.65;;
7199;SDS011;3641;49.082;8.200;2022-11-14T07:11:20;30.92;;;16.65;;
7199;SDS011;3641;49.082;8.200;2022-11-14T07:13:51;27.58;;;16.48;;
7199;SDS011;3641;49.082;8.200;2022-11-14T07:16:35;27.92;;;16.02;;
7199;SDS011;3641;49.082;8.200;2022-11-14T07:19:12;27.67;;;16.45;;
7199;SDS011;3641;49.082;8.200;2022-11-14T07:21:44;29.45;;;17.40;;
7199;SDS011;3641;49.082;8.200;2022-11-14T07:24:13;28.95;;;16.92;;
7199;SDS011;3641;49.082;8.200;2022-11-14T07:26:45;28.55;;;16.55;;
7199;SDS011;3641;49.082;8.200;2022-11-14T07:29:20;25.33;;;15.43;;
7199;SDS011;3641;49.082;8.200;2022-11-14T07:31:46;25.60;;;17.30;;
7199;SDS011;3641;49.082;8.200;2022-11-14T07:34:17;24.67;;;15.68;;
7199;SDS011;3641;49.082;8.200;2022-11-14T07:36:50;27.98;;;17.48;;
7199;SDS011;3641;49.082;8.200;2022-11-14T07:39:21;28.27;;;17.52;;
7199;SDS011;3641;49.082;8.200;2022-11-14T07:41:54;26.95;;;17.58;;
7199;SDS011;3641;49.082;8.200;2022-11-14T07:44:22;26.67;;;17.33;;
7199;SDS011;3641;49.082;8.200;2022-11-14T07:46:48;27.73;;;17.38;;
7199;SDS011;3641;49.082;8.200;2022-11-14T07:49:16;27.98;;;17.15;;
7199;SDS011;3641;49.082;8.200;2022-11-14T07:51:42;26.48;;;16.60;;
7199;SDS011;3641;49.082;8.200;2022-11-14T07:54:09;26.25;;;16.98;;
7199;SDS011;3641;49.082;8.200;2022-11-14T07:56:37;35.10;;;17.10;;
7199;SDS011;3641;49.082;8.200;2022-11-14T07:59:03;25.95;;;16.23;;
7199;SDS011;3641;49.082;8.200;2022-11-14T08:01:31;24.80;;;15.93;;
7199;SDS011;3641;49.082;8.200;2022-11-14T08:03:57;26.13;;;17.20;;
7199;SDS011;3641;49.082;8.200;2022-11-14T08:06:24;22.08;;;14.90;;
7199;SDS011;3641;49.082;8.200;2022-11-14T08:08:51;22.65;;;14.88;;
7199;SDS011;3641;49.082;8.200;2022-11-14T08:11:17;22.77;;;14.85;;
7199;SDS011;3641;49.082;8.200;2022-11-14T08:14:04;20.77;;;13.88;;
7199;SDS011;3641;49.082;8.200;2022-11-14T08:16:33;23.02;;;13.95;;
7199;SDS011;3641;49.082;8.200;2022-11-14T08:18:59;22.10;;;13.55;;
7199;SDS011;3641;49.082;8.200;2022-11-14T08:21:26;21.77;;;14.35;;
7199;SDS011;3641;49.082;8.200;2022-11-14T08:23:52;21.92;;;13.95;;
7199;SDS011;3641;49.082;8.200;2022-11-14T08:26:19;20.98;;;13.45;;
7199;SDS011;3641;49.082;8.200;2022-11-14T08:28:45;25.75;;;14.98;;
7199;SDS011;3641;49.082;8.200;2022-11-14T08:31:12;22.60;;;14.82;;
7199;SDS011;3641;49.082;8.200;2022-11-14T08:33:40;22.27;;;14.32;;
7199;SDS011;3641;49.082;8.200;2022-11-14T08:36:07;22.48;;;14.43;;
7199;SDS011;3641;49.082;8.200;2022-11-14T08:38:35;22.80;;;14.95;;
7199;SDS011;3641;49.082;8.200;2022-11-14T08:41:02;22.70;;;14.75;;
7199;SDS011;3641;49.082;8.200;2022-11-14T08:43:30;26.48;;;16.33;;
7199;SDS011;3641;49.082;8.200;2022-11-14T08:45:57;28.20;;;16.95;;
7199;SDS011;3641;49.082;8.200;2022-11-14T08:48:24;24.92;;;15.55;;
7199;SDS011;3641;49.082;8.200;2022-11-14T08:50:52;25.48;;;15.65;;
7199;SDS011;3641;49.082;8.200;2022-11-14T08:53:19;24.30;;;15.23;;
7199;SDS011;3641;49.082;8.200;2022-11-14T08:55:45;25.27;;;15.65;;
7199;SDS011;3641;49.082;8.200;2022-11-14T08:58:13;24.92;;;16.08;;
7199;SDS011;3641;49.082;8.200;2022-11-14T09:00:40;26.80;;;16.98;;
7199;SDS011;3641;49.082;8.200;2022-11-14T09:03:07;27.77;;;15.85;;
7199;SDS011;3641;49.082;8.200;2022-11-14T09:05:33;26.27;;;15.65;;
7199;SDS011;3641;49.082;8.200;2022-11-14T09:08:01;24.17;;;15.85;;
7199;SDS011;3641;49.082;8.200;2022-11-14T09:10:28;25.05;;;15.73;;
7199;SDS011;3641;49.082;8.200;2022-11-14T09:12:54;22.23;;;14.20;;
7199;SDS011;3641;49.082;8.200;2022-11-14T09:15:21;24.15;;;15.38;;
7199;SDS011;3641;49.082;8.200;2022-11-14T09:17:48;22.35;;;14.60;;
7199;SDS011;3641;49.082;8.200;2022-11-14T09:20:17;26.13;;;15.32;;
7199;SDS011;3641;49.082;8.200;2022-11-14T09:22:44;24.63;;;15.75;;
7199;SDS011;3641;49.082;8.200;2022-11-14T09:25:12;23.00;;;14.07;;
7199;SDS011;3641;49.082;8.200;2022-11-14T09:27:39;24.17;;;14.32;;
7199;SDS011;3641;49.082;8.200;2022-11-14T09:30:05;23.77;;;14.95;;
7199;SDS011;3641;49.082;8.200;2022-11-14T09:32:33;22.23;;;14.02;;
7199;SDS011;3641;49.082;8.200;2022-11-14T09:34:59;21.77;;;14.18;;
7199;SDS011;3641;49.082;8.200;2022-11-14T09:37:25;20.52;;;13.77;;
7199;SDS011;3641;49.082;8.200;2022-11-14T09:39:52;24.50;;;16.05;;
7199;SDS011;3641;49.082;8.200;2022-11-14T09:42:24;23.38;;;14.70;;
7199;SDS011;3641;49.082;8.200;2022-11-14T09:45:03;22.80;;;14.63;;
7199;SDS011;3641;49.082;8.200;2022-11-14T09:47:35;29.00;;;16.67;;
7199;SDS011;3641;49.082;8.200;2022-11-14T09:50:09;27.10;;;15.93;;
7199;SDS011;3641;49.082;8.200;2022-11-14T09:52:39;24.80;;;15.65;;
7199;SDS011;3641;49.082;8.200;2022-11-14T09:55:10;26.75;;;15.32;;
7199;SDS011;3641;49.082;8.200;2022-11-14T09:57:40;26.55;;;16.50;;
7199;SDS011;3641;49.082;8.200;2022-11-14T10:00:12;24.92;;;16.23;;
7199;SDS011;3641;49.082;8.200;2022-11-14T10:02:42;26.25;;;15.43;;
7199;SDS011;3641;49.082;8.200;2022-11-14T10:05:26;25.08;;;15.40;;
7199;SDS011;3641;49.082;8.200;2022-11-14T10:08:08;25.63;;;15.63;;
7199;SDS011;3641;49.082;8.200;2022-11-14T10:10:49;25.15;;;15.52;;
7199;SDS011;3641;49.082;8.200;2022-11-14T10:13:25;25.90;;;15.70;;
7199;SDS011;3641;49.082;8.200;2022-11-14T10:16:03;25.60;;;14.98;;
7199;SDS011;3641;49.082;8.200;2022-11-14T10:18:42;25.17;;;15.90;;
7199;SDS011;3641;49.082;8.200;2022-11-14T10:21:24;24.52;;;15.23;;
7199;SDS011;3641;49.082;8.200;2022-11-14T10:24:04;23.35;;;15.13;;
7199;SDS011;3641;49.082;8.200;2022-11-14T10:26:43;25.88;;;15.98;;
7199;SDS011;3641;49.082;8.200;2022-11-14T10:32:15;23.60;;;14.30;;
7199;SDS011;3641;49.082;8.200;2022-11-14T10:34:53;23.10;;;15.13;;
7199;SDS011;3641;49.082;8.200;2022-11-14T10:37:28;23.17;;;14.95;;
7199;SDS011;3641;49.082;8.200;2022-11-14T10:40:01;24.30;;;15.57;;
7199;SDS011;3641;49.082;8.200;2022-11-14T10:42:40;27.30;;;15.52;;
7199;SDS011;3641;49.082;8.200;2022-11-14T10:45:15;26.98;;;16.15;;
7199;SDS011;3641;49.082;8.200;2022-11-14T10:47:47;24.23;;;15.73;;
7199;SDS011;3641;49.082;8.200;2022-11-14T10:50:17;26.20;;;15.85;;
7199;SDS011;3641;49.082;8.200;2022-11-14T10:52:45;24.83;;;14.63;;
7199;SDS011;3641;49.082;8.200;2022-11-14T10:55:14;24.05;;;15.00;;
7199;SDS011;3641;49.082;8.200;2022-11-14T10:57:42;25.40;;;16.40;;
7199;SDS011;3641;49.082;8.200;2022-11-14T11:00:10;25.00;;;14.95;;
7199;SDS011;3641;49.082;8.200;2022-11-14T11:02:50;23.33;;;14.60;;
7199;SDS011;3641;49.082;8.200;2022-11-14T11:05:19;26.20;;;16.00;;
7199;SDS011;3641;49.082;8.200;2022-11-14T11:07:47;26.05;;;15.45;;
7199;SDS011;3641;49.082;8.200;2022-11-14T11:10:32;23.27;;;14.60;;
7199;SDS011;3641;49.082;8.200;2022-11-14T11:13:28;24.77;;;15.27;;
7199;SDS011;3641;49.082;8.200;2022-11-14T11:15:58;23.50;;;14.80;;
7199;SDS011;3641;49.082;8.200;2022-11-14T11:18:28;24.25;;;15.15;;
7199;SDS011;3641;49.082;8.200;2022-11-14T11:21:06;25.60;;;14.80;;
7199;SDS011;3641;49.082;8.200;2022-11-14T11:23:34;19.80;;;13.70;;
7199;SDS011;3641;49.082;8.200;2022-11-14T11:26:17;26.58;;;14.65;;
7199;SDS011;3641;49.082;8.200;2022-11-14T11:29:00;23.77;;;15.77;;
7199;SDS011;3641;49.082;8.200;2022-11-14T11:31:28;25.63;;;15.85;;
7199;SDS011;3641;49.082;8.200;2022-11-14T11:34:16;24.73;;;15.65;;
7199;SDS011;3641;49.082;8.200;2022-11-14T11:36:48;25.45;;;15.20;;
7199;SDS011;3641;49.082;8.200;2022-11-14T11:39:20;24.95;;;15.98;;
7199;SDS011;3641;49.082;8.200;2022-11-14T11:41:51;28.67;;;17.75;;
7199;SDS011;3641;49.082;8.200;2022-11-14T11:44:30;25.70;;;15.48;;
7199;SDS011;3641;49.082;8.200;2022-11-14T11:47:02;23.85;;;15.10;;
7199;SDS011;3641;49.082;8.200;2022-11-14T11:49:39;25.92;;;14.95;;
7199;SDS011;3641;49.082;8.200;2022-11-14T11:52:11;26.13;;;15.32;;
7199;SDS011;3641;49.082;8.200;2022-11-14T11:54:44;25.40;;;15.43;;
7199;SDS011;3641;49.082;8.200;2022-11-14T11:57:16;23.30;;;15.15;;
7199;SDS011;3641;49.082;8.200;2022-11-14T11:59:44;26.50;;;16.95;;
7199;SDS011;3641;49.082;8.200;2022-11-14T12:02:17;27.63;;;16.42;;
7199;SDS011;3641;49.082;8.200;2022-11-14T12:04:49;25.13;;;15.82;;
7199;SDS011;3641;49.082;8.200;2022-11-14T12:07:18;24.40;;;15.02;;
7199;SDS011;3641;49.082;8.200;2022-11-14T12:09:46;23.10;;;14.73;;
7199;SDS011;3641;49.082;8.200;2022-11-14T12:12:17;23.77;;;14.60;;
7199;SDS011;3641;49.082;8.200;2022-11-14T12:14:51;27.75;;;15.93;;
7199;SDS011;3641;49.082;8.200;2022-11-14T12:17:34;22.17;;;15.05;;
7199;SDS011;3641;49.082;8.200;2022-11-14T12:23:25;23.98;;;14.80;;
7199;SDS011;3641;49.082;8.200;2022-11-14T12:26:13;20.92;;;13.90;;
7199;SDS011;3641;49.082;8.200;2022-11-14T12:29:03;24.00;;;15.48;;
7199;SDS011;3641;49.082;8.200;2022-11-14T12:31:42;21.13;;;13.82;;
7199;SDS011;3641;49.082;8.200;2022-11-14T12:34:12;25.90;;;15.40;;
7199;SDS011;3641;49.082;8.200;2022-11-14T12:36:51;22.52;;;14.00;;
7199;SDS011;3641;49.082;8.200;2022-11-14T12:39:20;23.48;;;15.32;;
7199;SDS011;3641;49.082;8.200;2022-11-14T12:41:49;22.73;;;13.95;;
7199;SDS011;3641;49.082;8.200;2022-11-14T12:44:16;23.40;;;14.88;;
7199;SDS011;3641;49.082;8.200;2022-11-14T12:52:41;25.42;;;16.15;;
7199;SDS011;3641;49.082;8.200;2022-11-14T12:58:17;22.63;;;14.93;;
7199;SDS011;3641;49.082;8.200;2022-11-14T13:00:57;23.58;;;14.23;;
7199;SDS011;3641;49.082;8.200;2022-11-14T13:03:37;19.58;;;13.60;;
7199;SDS011;3641;49.082;8.200;2022-11-14T13:06:16;20.23;;;13.07;;
7199;SDS011;3641;49.082;8.200;2022-11-14T13:08:58;20.70;;;13.80;;
7199;SDS011;3641;49.082;8.200;2022-11-14T13:11:43;21.20;;;13.68;;
7199;SDS011;3641;49.082;8.200;2022-11-14T13:14:28;19.98;;;13.40;;
7199;SDS011;3641;49.082;8.200;2022-11-14T13:17:22;20.95;;;13.38;;
7199;SDS011;3641;49.082;8.200;2022-11-14T13:20:28;19.40;;;12.77;;
7199;SDS011;3641;49.082;8.200;2022-11-14T13:26:37;19.83;;;13.27;;
7199;SDS011;3641;49.082;8.200;2022-11-14T13:32:12;27.27;;;14.38;;
7199;SDS011;3641;49.082;8.200;2022-11-14T13:34:58;19.92;;;12.00;;
7199;SDS011;3641;49.082;8.200;2022-11-14T13:37:34;19.35;;;12.65;;
7199;SDS011;3641;49.082;8.200;2022-11-14T13:40:17;17.90;;;11.77;;
7199;SDS011;3641;49.082;8.200;2022-11-14T13:42:52;19.05;;;12.35;;
7199;SDS011;3641;49.082;8.200;2022-11-14T13:45:34;18.55;;;11.95;;
7199;SDS011;3641;49.082;8.200;2022-11-14T13:51:14;17.17;;;11.55;;
7199;SDS011;3641;49.082;8.200;2022-11-14T13:53:42;17.60;;;11.05;;
7199;SDS011;3641;49.082;8.200;2022-11-14T13:56:13;17.30;;;10.75;;
7199;SDS011;3641;49.082;8.200;2022-11-14T13:59:04;16.67;;;11.13;;
7199;SDS011;3641;49.082;8.200;2022-11-14T14:01:55;18.65;;;10.35;;
7199;SDS011;3641;49.082;8.200;2022-11-14T14:04:44;18.13;;;12.57;;
7199;SDS011;3641;49.082;8.200;2022-11-14T14:07:21;19.35;;;12.18;;
7199;SDS011;3641;49.082;8.200;2022-11-14T14:10:00;17.52;;;12.00;;
7199;SDS011;3641;49.082;8.200;2022-11-14T14:12:44;18.33;;;11.57;;
7199;SDS011;3641;49.082;8.200;2022-11-14T14:15:21;17.17;;;11.18;;
7199;SDS011;3641;49.082;8.200;2022-11-14T14:17:55;19.23;;;11.63;;
7199;SDS011;3641;49.082;8.200;2022-11-14T14:20:33;17.35;;;11.32;;
7199;SDS011;3641;49.082;8.200;2022-11-14T14:23:11;18.48;;;11.48;;
7199;SDS011;3641;49.082;8.200;2022-11-14T14:25:46;17.17;;;10.95;;
7199;SDS011;3641;49.082;8.200;2022-11-14T14:28:24;17.50;;;12.13;;
7199;SDS011;3641;49.082;8.200;2022-11-14T14:31:08;19.60;;;12.60;;
7199;SDS011;3641;49.082;8.200;2022-11-14T14:33:40;17.13;;;11.52;;
7199;SDS011;3641;49.082;8.200;2022-11-14T14:36:15;18.52;;;11.30;;
7199;SDS011;3641;49.082;8.200;2022-11-14T14:38:43;18.40;;;11.23;;
7199;SDS011;3641;49.082;8.200;2022-11-14T14:41:10;19.42;;;12.13;;
7199;SDS011;3641;49.082;8.200;2022-11-14T14:43:39;17.77;;;10.88;;
7199;SDS011;3641;49.082;8.200;2022-11-14T14:46:09;20.13;;;11.93;;
7199;SDS011;3641;49.082;8.200;2022-11-14T14:48:38;18.95;;;10.90;;
7199;SDS011;3641;49.082;8.200;2022-11-14T14:51:09;21.42;;;12.13;;
7199;SDS011;3641;49.082;8.200;2022-11-14T14:53:39;18.60;;;11.82;;
7199;SDS011;3641;49.082;8.200;2022-11-14T14:56:17;19.30;;;11.43;;
7199;SDS011;3641;49.082;8.200;2022-11-14T14:58:45;15.93;;;11.30;;
7199;SDS011;3641;49.082;8.200;2022-11-14T15:01:13;18.13;;;11.68;;
7199;SDS011;3641;49.082;8.200;2022-11-14T15:03:42;18.50;;;11.82;;
7199;SDS011;3641;49.082;8.200;2022-11-14T15:06:17;17.55;;;12.60;;
7199;SDS011;3641;49.082;8.200;2022-11-14T15:08:53;17.98;;;11.63;;
7199;SDS011;3641;49.082;8.200;2022-11-14T15:11:21;17.73;;;11.77;;
7199;SDS011;3641;49.082;8.200;2022-11-14T15:13:48;17.42;;;10.02;;
7199;SDS011;3641;49.082;8.200;2022-11-14T15:16:18;16.73;;;10.68;;
7199;SDS011;3641;49.082;8.200;2022-11-14T15:18:46;15.43;;;9.98;;
7199;SDS011;3641;49.082;8.200;2022-11-14T15:21:15;17.02;;;10.00;;
7199;SDS011;3641;49.082;8.200;2022-11-14T15:23:56;22.90;;;11.38;;
7199;SDS011;3641;49.082;8.200;2022-11-14T15:26:24;17.48;;;11.23;;
7199;SDS011;3641;49.082;8.200;2022-11-14T15:28:50;20.58;;;11.43;;
7199;SDS011;3641;49.082;8.200;2022-11-14T15:31:19;16.05;;;10.25;;
7199;SDS011;3641;49.082;8.200;2022-11-14T15:33:59;20.88;;;11.02;;